sensor_id;sensor_type;location;lat;lon;timestamp;P1;durP1;ratioP1;P2;durP2;ratioP2
12267;SDS011;6196;48.398;11.736;2022-12-29T00:00:17;2.37;;;2.10;;
12267;SDS011;6196;48.398;11.736;2022-12-29T00:02:43;2.90;;;2.20;;
12267;SDS011;6196;48.398;11.736;2022-12-29T00:05:10;3.10;;;2.10;;
12267;SDS011;6196;48.398;11.736;2022-12-29T00:07:37;2.43;;;1.90;;
12267;SDS011;6196;48.398;11.736;2022-12-29T00:10:04;2.40;;;2.13;;
12267;SDS011;6196;48.398;11.736;2022-12-29T00:12:32;2.60;;;1.90;;
12267;SDS011;6196;48.398;11.736;2022-12-29T00:15:19;3.47;;;2.47;;
12267;SDS011;6196;48.398;11.736;2022-12-29T00:18:04;2.43;;;2.20;;
12267;SDS011;6196;48.398;11.736;2022-12-29T00:20:35;2.60;;;2.40;;
12267;SDS011;6196;48.398;11.736;2022-12-29T00:23:22;2.23;;;1.90;;
12267;SDS011;6196;48.398;11.736;2022-12-29T00:26:15;2.33;;;2.07;;
12267;SDS011;6196;48.398;11.736;2022-12-29T00:29:01;2.40;;;2.10;;
12267;SDS011;6196;48.398;11.736;2022-12-29T00:31:47;2.80;;;2.17;;
12267;SDS011;6196;48.398;11.736;2022-12-29T00:34:33;2.43;;;2.20;;
12267;SDS011;6196;48.398;11.736;2022-12-29T00:37:32;3.03;;;2.50;;
12267;SDS011;6196;48.398;11.736;2022-12-29T00:40:17;2.60;;;2.03;;
12267;SDS011;6196;48.398;11.736;2022-12-29T00:43:02;3.73;;;2.60;;
12267;SDS011;6196;48.398;11.736;2022-12-29T00:45:47;3.03;;;2.20;;
12267;SDS011;6196;48.398;11.736;2022-12-29T00:48:14;2.17;;;1.97;;
12267;SDS011;6196;48.398;11.736;2022-12-29T00:50:41;2.60;;;1.90;;
12267;SDS011;6196;48.398;11.736;2022-12-29T00:53:08;2.10;;;1.87;;
12267;SDS011;6196;48.398;11.736;2022-12-29T00:55:38;2.43;;;2.13;;
12267;SDS011;6196;48.398;11.736;2022-12-29T00:58:05;2.70;;;2.00;;
12267;SDS011;6196;48.398;11.736;2022-12-29T01:00:32;3.77;;;2.50;;
12267;SDS011;6196;48.398;11.736;2022-12-29T01:02:59;2.53;;;1.87;;
12267;SDS011;6196;48.398;11.736;2022-12-29T01:05:26;2.53;;;1.83;;
12267;SDS011;6196;48.398;11.736;2022-12-29T01:07:53;2.00;;;1.60;;
12267;SDS011;6196;48.398;11.736;2022-12-29T01:10:20;2.97;;;2.13;;
12267;SDS011;6196;48.398;11.736;2022-12-29T01:12:46;2.73;;;2.00;;
12267;SDS011;6196;48.398;11.736;2022-12-29T01:15:15;2.40;;;1.90;;
12267;SDS011;6196;48.398;11.736;2022-12-29T01:17:42;1.97;;;1.70;;
12267;SDS011;6196;48.398;11.736;2022-12-29T01:20:09;2.70;;;1.87;;
12267;SDS011;6196;48.398;11.736;2022-12-29T01:22:37;1.87;;;1.70;;
12267;SDS011;6196;48.398;11.736;2022-12-29T01:25:05;3.50;;;1.80;;
12267;SDS011;6196;48.398;11.736;2022-12-29T01:27:32;2.93;;;2.03;;
12267;SDS011;6196;48.398;11.736;2022-12-29T01:29:59;3.60;;;2.03;;
12267;SDS011;6196;48.398;11.736;2022-12-29T01:32:26;2.57;;;1.83;;
12267;SDS011;6196;48.398;11.736;2022-12-29T01:34:53;2.70;;;1.70;;
12267;SDS011;6196;48.398;11.736;2022-12-29T01:37:20;2.43;;;1.57;;
12267;SDS011;6196;48.398;11.736;2022-12-29T01:39:46;3.20;;;2.03;;
12267;SDS011;6196;48.398;11.736;2022-12-29T01:42:17;2.00;;;1.60;;
12267;SDS011;6196;48.398;11.736;2022-12-29T01:44:50;1.93;;;1.53;;
12267;SDS011;6196;48.398;11.736;2022-12-29T01:47:23;2.50;;;1.83;;
12267;SDS011;6196;48.398;11.736;2022-12-29T01:49:55;2.50;;;1.73;;
12267;SDS011;6196;48.398;11.736;2022-12-29T01:52:27;2.27;;;1.70;;
12267;SDS011;6196;48.398;11.736;2022-12-29T01:54:58;2.10;;;1.90;;
12267;SDS011;6196;48.398;11.736;2022-12-29T01:57:29;2.63;;;1.90;;
12267;SDS011;6196;48.398;11.736;2022-12-29T02:00:02;2.33;;;1.90;;
12267;SDS011;6196;48.398;11.736;2022-12-29T02:02:35;2.20;;;1.90;;
12267;SDS011;6196;48.398;11.736;2022-12-29T02:05:05;2.17;;;1.67;;
12267;SDS011;6196;48.398;11.736;2022-12-29T02:07:38;4.50;;;1.80;;
12267;SDS011;6196;48.398;11.736;2022-12-29T02:10:07;2.23;;;1.90;;
12267;SDS011;6196;48.398;11.736;2022-12-29T02:12:34;1.87;;;1.67;;
12267;SDS011;6196;48.398;11.736;2022-12-29T02:15:00;1.87;;;1.53;;
12267;SDS011;6196;48.398;11.736;2022-12-29T02:17:50;2.70;;;1.83;;
12267;SDS011;6196;48.398;11.736;2022-12-29T02:26:38;2.10;;;1.77;;
12267;SDS011;6196;48.398;11.736;2022-12-29T02:35:35;2.00;;;1.80;;
12267;SDS011;6196;48.398;11.736;2022-12-29T02:38:40;2.27;;;1.80;;
12267;SDS011;6196;48.398;11.736;2022-12-29T02:41:24;1.67;;;1.57;;
12267;SDS011;6196;48.398;11.736;2022-12-29T02:52:40;2.20;;;2.00;;
12267;SDS011;6196;48.398;11.736;2022-12-29T02:55:14;2.23;;;1.60;;
12267;SDS011;6196;48.398;11.736;2022-12-29T02:57:41;1.60;;;1.40;;
12267;SDS011;6196;48.398;11.736;2022-12-29T03:00:12;2.27;;;1.37;;
12267;SDS011;6196;48.398;11.736;2022-12-29T03:09:14;2.37;;;1.60;;
12267;SDS011;6196;48.398;11.736;2022-12-29T03:12:13;2.70;;;1.40;;
12267;SDS011;6196;48.398;11.736;2022-12-29T03:15:18;2.67;;;1.80;;
12267;SDS011;6196;48.398;11.736;2022-12-29T03:18:12;1.80;;;1.53;;
12267;SDS011;6196;48.398;11.736;2022-12-29T03:20:53;2.27;;;1.57;;
12267;SDS011;6196;48.398;11.736;2022-12-29T03:23:25;2.60;;;1.83;;
12267;SDS011;6196;48.398;11.736;2022-12-29T03:25:55;2.20;;;1.63;;
12267;SDS011;6196;48.398;11.736;2022-12-29T03:28:29;2.13;;;1.77;;
12267;SDS011;6196;48.398;11.736;2022-12-29T03:31:03;3.80;;;1.70;;
12267;SDS011;6196;48.398;11.736;2022-12-29T03:33:33;3.07;;;1.63;;
12267;SDS011;6196;48.398;11.736;2022-12-29T03:36:02;1.90;;;1.63;;
12267;SDS011;6196;48.398;11.736;2022-12-29T03:38:42;1.80;;;1.23;;
12267;SDS011;6196;48.398;11.736;2022-12-29T03:41:15;1.43;;;1.23;;
12267;SDS011;6196;48.398;11.736;2022-12-29T03:43:46;2.43;;;1.40;;
12267;SDS011;6196;48.398;11.736;2022-12-29T03:46:12;1.57;;;1.47;;
12267;SDS011;6196;48.398;11.736;2022-12-29T03:48:39;1.90;;;1.33;;
12267;SDS011;6196;48.398;11.736;2022-12-29T03:51:06;1.67;;;1.13;;
12267;SDS011;6196;48.398;11.736;2022-12-29T03:53:33;2.03;;;1.30;;
12267;SDS011;6196;48.398;11.736;2022-12-29T03:56:00;2.67;;;1.07;;
12267;SDS011;6196;48.398;11.736;2022-12-29T03:58:27;1.50;;;1.40;;
12267;SDS011;6196;48.398;11.736;2022-12-29T04:00:54;1.60;;;1.37;;
12267;SDS011;6196;48.398;11.736;2022-12-29T04:03:20;2.10;;;1.60;;
12267;SDS011;6196;48.398;11.736;2022-12-29T04:05:47;1.30;;;1.20;;
12267;SDS011;6196;48.398;11.736;2022-12-29T04:08:14;1.67;;;1.20;;
12267;SDS011;6196;48.398;11.736;2022-12-29T04:10:42;1.30;;;1.20;;
12267;SDS011;6196;48.398;11.736;2022-12-29T04:13:09;2.20;;;1.50;;
12267;SDS011;6196;48.398;11.736;2022-12-29T04:15:35;3.63;;;1.20;;
12267;SDS011;6196;48.398;11.736;2022-12-29T04:18:02;1.43;;;1.20;;
12267;SDS011;6196;48.398;11.736;2022-12-29T04:20:29;2.53;;;1.30;;
12267;SDS011;6196;48.398;11.736;2022-12-29T04:23:14;2.07;;;1.37;;
12267;SDS011;6196;48.398;11.736;2022-12-29T04:25:44;2.20;;;1.40;;
12267;SDS011;6196;48.398;11.736;2022-12-29T04:28:14;1.80;;;1.57;;
12267;SDS011;6196;48.398;11.736;2022-12-29T04:30:44;1.47;;;1.20;;
12267;SDS011;6196;48.398;11.736;2022-12-29T04:33:12;1.40;;;1.23;;
12267;SDS011;6196;48.398;11.736;2022-12-29T04:35:39;1.27;;;1.10;;
12267;SDS011;6196;48.398;11.736;2022-12-29T04:38:06;2.57;;;1.37;;
12267;SDS011;6196;48.398;11.736;2022-12-29T04:40:33;2.03;;;0.97;;
12267;SDS011;6196;48.398;11.736;2022-12-29T04:42:59;1.57;;;1.20;;
12267;SDS011;6196;48.398;11.736;2022-12-29T04:45:27;1.27;;;1.00;;
12267;SDS011;6196;48.398;11.736;2022-12-29T04:47:54;1.57;;;1.17;;
12267;SDS011;6196;48.398;11.736;2022-12-29T04:50:20;1.13;;;0.83;;
12267;SDS011;6196;48.398;11.736;2022-12-29T04:52:47;1.73;;;1.10;;
12267;SDS011;6196;48.398;11.736;2022-12-29T04:55:14;1.77;;;1.10;;
12267;SDS011;6196;48.398;11.736;2022-12-29T04:57:43;2.00;;;1.10;;
12267;SDS011;6196;48.398;11.736;2022-12-29T05:00:10;1.00;;;0.90;;
12267;SDS011;6196;48.398;11.736;2022-12-29T05:02:38;2.40;;;1.17;;
12267;SDS011;6196;48.398;11.736;2022-12-29T05:05:05;2.57;;;0.97;;
12267;SDS011;6196;48.398;11.736;2022-12-29T05:07:33;1.30;;;1.00;;
12267;SDS011;6196;48.398;11.736;2022-12-29T05:10:00;1.50;;;1.10;;
12267;SDS011;6196;48.398;11.736;2022-12-29T05:12:31;1.10;;;0.97;;
12267;SDS011;6196;48.398;11.736;2022-12-29T05:14:59;1.10;;;1.00;;
12267;SDS011;6196;48.398;11.736;2022-12-29T05:17:26;1.20;;;0.90;;
12267;SDS011;6196;48.398;11.736;2022-12-29T05:19:52;1.30;;;0.90;;
12267;SDS011;6196;48.398;11.736;2022-12-29T05:22:19;1.17;;;1.00;;
12267;SDS011;6196;48.398;11.736;2022-12-29T05:24:47;1.30;;;0.90;;
12267;SDS011;6196;48.398;11.736;2022-12-29T05:27:14;2.17;;;1.37;;
12267;SDS011;6196;48.398;11.736;2022-12-29T05:29:40;1.90;;;1.23;;
12267;SDS011;6196;48.398;11.736;2022-12-29T05:32:07;1.10;;;1.00;;
12267;SDS011;6196;48.398;11.736;2022-12-29T05:34:34;1.00;;;0.90;;
12267;SDS011;6196;48.398;11.736;2022-12-29T05:37:01;1.10;;;1.00;;
12267;SDS011;6196;48.398;11.736;2022-12-29T05:39:28;1.50;;;1.00;;
12267;SDS011;6196;48.398;11.736;2022-12-29T05:41:55;1.23;;;1.00;;
12267;SDS011;6196;48.398;11.736;2022-12-29T05:44:22;1.43;;;1.10;;
12267;SDS011;6196;48.398;11.736;2022-12-29T05:46:49;1.30;;;1.00;;
12267;SDS011;6196;48.398;11.736;2022-12-29T05:49:16;1.17;;;0.93;;
12267;SDS011;6196;48.398;11.736;2022-12-29T05:51:43;1.17;;;1.07;;
12267;SDS011;6196;48.398;11.736;2022-12-29T05:54:10;1.27;;;1.17;;
12267;SDS011;6196;48.398;11.736;2022-12-29T05:56:37;1.40;;;1.30;;
12267;SDS011;6196;48.398;11.736;2022-12-29T05:59:04;1.40;;;1.20;;
12267;SDS011;6196;48.398;11.736;2022-12-29T06:01:31;1.93;;;1.30;;
12267;SDS011;6196;48.398;11.736;2022-12-29T06:03:59;1.40;;;1.20;;
12267;SDS011;6196;48.398;11.736;2022-12-29T06:06:26;1.33;;;1.10;;
12267;SDS011;6196;48.398;11.736;2022-12-29T06:08:54;1.50;;;1.00;;
12267;SDS011;6196;48.398;11.736;2022-12-29T06:11:20;1.13;;;0.90;;
12267;SDS011;6196;48.398;11.736;2022-12-29T06:13:47;1.37;;;1.10;;
12267;SDS011;6196;48.398;11.736;2022-12-29T06:16:14;1.27;;;0.90;;
12267;SDS011;6196;48.398;11.736;2022-12-29T06:18:41;1.10;;;0.90;;
12267;SDS011;6196;48.398;11.736;2022-12-29T06:21:08;0.80;;;0.80;;
12267;SDS011;6196;48.398;11.736;2022-12-29T06:23:35;1.17;;;0.90;;
12267;SDS011;6196;48.398;11.736;2022-12-29T06:26:01;1.13;;;0.70;;
12267;SDS011;6196;48.398;11.736;2022-12-29T06:28:28;2.23;;;1.00;;
12267;SDS011;6196;48.398;11.736;2022-12-29T06:30:55;1.00;;;0.83;;
12267;SDS011;6196;48.398;11.736;2022-12-29T06:33:23;1.83;;;0.93;;
12267;SDS011;6196;48.398;11.736;2022-12-29T06:35:50;1.10;;;0.93;;
12267;SDS011;6196;48.398;11.736;2022-12-29T06:38:17;1.67;;;0.93;;
12267;SDS011;6196;48.398;11.736;2022-12-29T06:40:43;0.90;;;0.80;;
12267;SDS011;6196;48.398;11.736;2022-12-29T06:43:11;1.23;;;0.90;;
12267;SDS011;6196;48.398;11.736;2022-12-29T06:45:38;1.00;;;0.90;;
12267;SDS011;6196;48.398;11.736;2022-12-29T06:48:06;1.30;;;1.20;;
12267;SDS011;6196;48.398;11.736;2022-12-29T06:50:33;1.20;;;1.10;;
12267;SDS011;6196;48.398;11.736;2022-12-29T06:53:01;1.20;;;1.10;;
12267;SDS011;6196;48.398;11.736;2022-12-29T06:55:27;1.90;;;1.17;;
12267;SDS011;6196;48.398;11.736;2022-12-29T06:57:55;1.10;;;1.00;;
12267;SDS011;6196;48.398;11.736;2022-12-29T07:00:23;1.30;;;0.90;;
12267;SDS011;6196;48.398;11.736;2022-12-29T07:02:51;1.20;;;1.10;;
12267;SDS011;6196;48.398;11.736;2022-12-29T07:05:18;2.27;;;1.30;;
12267;SDS011;6196;48.398;11.736;2022-12-29T07:07:45;1.10;;;0.90;;
12267;SDS011;6196;48.398;11.736;2022-12-29T07:10:12;1.60;;;0.97;;
12267;SDS011;6196;48.398;11.736;2022-12-29T07:12:39;1.37;;;1.20;;
12267;SDS011;6196;48.398;11.736;2022-12-29T07:15:06;1.23;;;0.87;;
12267;SDS011;6196;48.398;11.736;2022-12-29T07:17:33;1.03;;;0.93;;
12267;SDS011;6196;48.398;11.736;2022-12-29T07:20:00;1.53;;;0.97;;
12267;SDS011;6196;48.398;11.736;2022-12-29T07:22:27;1.57;;;0.83;;
12267;SDS011;6196;48.398;11.736;2022-12-29T07:24:54;1.20;;;0.80;;
12267;SDS011;6196;48.398;11.736;2022-12-29T07:27:21;2.40;;;1.00;;
12267;SDS011;6196;48.398;11.736;2022-12-29T07:29:48;1.53;;;1.27;;
12267;SDS011;6196;48.398;11.736;2022-12-29T07:32:14;0.93;;;0.90;;
12267;SDS011;6196;48.398;11.736;2022-12-29T07:34:42;2.17;;;1.07;;
12267;SDS011;6196;48.398;11.736;2022-12-29T07:37:11;1.20;;;1.10;;
12267;SDS011;6196;48.398;11.736;2022-12-29T07:39:38;2.00;;;1.07;;
12267;SDS011;6196;48.398;11.736;2022-12-29T07:42:05;1.03;;;0.90;;
12267;SDS011;6196;48.398;11.736;2022-12-29T07:44:32;1.23;;;1.10;;
12267;SDS011;6196;48.398;11.736;2022-12-29T07:46:59;1.20;;;1.10;;
12267;SDS011;6196;48.398;11.736;2022-12-29T07:49:27;3.50;;;1.70;;
12267;SDS011;6196;48.398;11.736;2022-12-29T07:51:54;2.37;;;1.80;;
12267;SDS011;6196;48.398;11.736;2022-12-29T07:54:21;16.33;;;8.43;;
12267;SDS011;6196;48.398;11.736;2022-12-29T07:56:49;10.67;;;5.30;;
12267;SDS011;6196;48.398;11.736;2022-12-29T07:59:16;6.27;;;2.60;;
12267;SDS011;6196;48.398;11.736;2022-12-29T08:01:43;3.93;;;2.33;;
12267;SDS011;6196;48.398;11.736;2022-12-29T08:04:10;3.73;;;1.80;;
12267;SDS011;6196;48.398;11.736;2022-12-29T08:06:37;5.40;;;2.30;;
12267;SDS011;6196;48.398;11.736;2022-12-29T08:09:04;3.50;;;1.97;;
12267;SDS011;6196;48.398;11.736;2022-12-29T08:11:43;2.07;;;1.37;;
12267;SDS011;6196;48.398;11.736;2022-12-29T08:14:10;2.93;;;1.67;;
12267;SDS011;6196;48.398;11.736;2022-12-29T08:16:37;2.47;;;1.20;;
12267;SDS011;6196;48.398;11.736;2022-12-29T08:19:04;1.80;;;1.30;;
12267;SDS011;6196;48.398;11.736;2022-12-29T08:21:31;1.73;;;1.30;;
12267;SDS011;6196;48.398;11.736;2022-12-29T08:23:58;1.30;;;1.10;;
12267;SDS011;6196;48.398;11.736;2022-12-29T08:26:25;1.27;;;1.00;;
12267;SDS011;6196;48.398;11.736;2022-12-29T08:28:53;2.70;;;1.43;;
12267;SDS011;6196;48.398;11.736;2022-12-29T08:31:21;3.60;;;1.13;;
12267;SDS011;6196;48.398;11.736;2022-12-29T08:33:49;1.50;;;1.17;;
12267;SDS011;6196;48.398;11.736;2022-12-29T08:36:17;1.17;;;1.00;;
12267;SDS011;6196;48.398;11.736;2022-12-29T08:38:43;4.50;;;1.30;;
12267;SDS011;6196;48.398;11.736;2022-12-29T08:41:10;1.70;;;1.20;;
12267;SDS011;6196;48.398;11.736;2022-12-29T08:43:37;4.63;;;1.10;;
12267;SDS011;6196;48.398;11.736;2022-12-29T08:46:04;1.53;;;0.80;;
12267;SDS011;6196;48.398;11.736;2022-12-29T08:48:31;1.80;;;0.80;;
12267;SDS011;6196;48.398;11.736;2022-12-29T08:50:58;1.53;;;0.90;;
12267;SDS011;6196;48.398;11.736;2022-12-29T08:53:25;1.10;;;0.80;;
12267;SDS011;6196;48.398;11.736;2022-12-29T08:55:58;2.33;;;1.30;;
12267;SDS011;6196;48.398;11.736;2022-12-29T08:58:31;3.40;;;1.83;;
12267;SDS011;6196;48.398;11.736;2022-12-29T09:00:58;1.67;;;1.20;;
12267;SDS011;6196;48.398;11.736;2022-12-29T09:03:25;1.53;;;1.07;;
12267;SDS011;6196;48.398;11.736;2022-12-29T09:06:13;1.13;;;0.80;;
12267;SDS011;6196;48.398;11.736;2022-12-29T09:08:42;1.27;;;1.03;;
12267;SDS011;6196;48.398;11.736;2022-12-29T09:11:11;2.07;;;1.33;;
12267;SDS011;6196;48.398;11.736;2022-12-29T09:13:46;1.27;;;1.00;;
12267;SDS011;6196;48.398;11.736;2022-12-29T09:16:14;3.57;;;1.03;;
12267;SDS011;6196;48.398;11.736;2022-12-29T09:18:43;2.40;;;1.03;;
12267;SDS011;6196;48.398;11.736;2022-12-29T09:21:11;1.07;;;0.97;;
12267;SDS011;6196;48.398;11.736;2022-12-29T09:23:38;1.70;;;1.20;;
12267;SDS011;6196;48.398;11.736;2022-12-29T09:26:06;1.83;;;1.00;;
12267;SDS011;6196;48.398;11.736;2022-12-29T09:28:33;2.50;;;1.00;;
12267;SDS011;6196;48.398;11.736;2022-12-29T09:31:01;1.10;;;1.00;;
12267;SDS011;6196;48.398;11.736;2022-12-29T09:33:28;2.20;;;1.30;;
12267;SDS011;6196;48.398;11.736;2022-12-29T09:35:56;2.10;;;1.07;;
12267;SDS011;6196;48.398;11.736;2022-12-29T09:38:24;1.57;;;1.13;;
12267;SDS011;6196;48.398;11.736;2022-12-29T09:41:00;3.43;;;1.10;;
12267;SDS011;6196;48.398;11.736;2022-12-29T09:46:35;1.63;;;0.97;;
12267;SDS011;6196;48.398;11.736;2022-12-29T09:49:08;1.63;;;1.00;;
12267;SDS011;6196;48.398;11.736;2022-12-29T09:51:53;2.27;;;1.17;;
12267;SDS011;6196;48.398;11.736;2022-12-29T09:54:33;1.33;;;1.20;;
12267;SDS011;6196;48.398;11.736;2022-12-29T09:57:30;1.60;;;1.20;;
12267;SDS011;6196;48.398;11.736;2022-12-29T10:00:08;2.87;;;1.20;;
12267;SDS011;6196;48.398;11.736;2022-12-29T10:02:44;1.97;;;1.17;;
12267;SDS011;6196;48.398;11.736;2022-12-29T10:23:28;3.50;;;1.37;;
12267;SDS011;6196;48.398;11.736;2022-12-29T10:25:43;2.90;;;1.00;;
12267;SDS011;6196;48.398;11.736;2022-12-29T10:28:18;3.57;;;1.27;;
12267;SDS011;6196;48.398;11.736;2022-12-29T10:30:48;1.77;;;1.07;;
12267;SDS011;6196;48.398;11.736;2022-12-29T10:33:21;1.73;;;1.23;;
12267;SDS011;6196;48.398;11.736;2022-12-29T10:35:56;8.97;;;6.47;;
12267;SDS011;6196;48.398;11.736;2022-12-29T10:41:03;1.60;;;1.50;;
12267;SDS011;6196;48.398;11.736;2022-12-29T10:43:47;5.17;;;4.17;;
12267;SDS011;6196;48.398;11.736;2022-12-29T10:46:18;2.50;;;2.30;;
12267;SDS011;6196;48.398;11.736;2022-12-29T10:48:52;3.67;;;0.97;;
12267;SDS011;6196;48.398;11.736;2022-12-29T10:51:37;1.73;;;0.90;;
12267;SDS011;6196;48.398;11.736;2022-12-29T10:54:21;2.63;;;1.10;;
12267;SDS011;6196;48.398;11.736;2022-12-29T10:59:38;2.87;;;0.80;;
12267;SDS011;6196;48.398;11.736;2022-12-29T11:04:42;3.33;;;0.90;;
12267;SDS011;6196;48.398;11.736;2022-12-29T11:07:41;1.37;;;0.80;;
12267;SDS011;6196;48.398;11.736;2022-12-29T11:10:19;1.13;;;0.90;;
12267;SDS011;6196;48.398;11.736;2022-12-29T11:15:43;2.37;;;1.07;;
12267;SDS011;6196;48.398;11.736;2022-12-29T11:21:04;1.53;;;1.00;;
12267;SDS011;6196;48.398;11.736;2022-12-29T11:24:18;0.90;;;0.80;;
12267;SDS011;6196;48.398;11.736;2022-12-29T11:26:49;2.37;;;1.00;;
12267;SDS011;6196;48.398;11.736;2022-12-29T11:29:21;4.07;;;1.00;;
12267;SDS011;6196;48.398;11.736;2022-12-29T11:31:52;2.07;;;0.93;;
12267;SDS011;6196;48.398;11.736;2022-12-29T11:34:26;2.07;;;1.00;;
12267;SDS011;6196;48.398;11.736;2022-12-29T11:37:05;1.67;;;1.10;;
12267;SDS011;6196;48.398;11.736;2022-12-29T11:45:15;1.27;;;0.90;;
12267;SDS011;6196;48.398;11.736;2022-12-29T11:47:49;1.10;;;0.80;;
12267;SDS011;6196;48.398;11.736;2022-12-29T11:50:21;1.20;;;0.70;;
12267;SDS011;6196;48.398;11.736;2022-12-29T11:56:04;2.27;;;1.07;;
12267;SDS011;6196;48.398;11.736;2022-12-29T11:58:36;1.10;;;0.90;;
12267;SDS011;6196;48.398;11.736;2022-12-29T12:01:16;1.63;;;1.03;;
12267;SDS011;6196;48.398;11.736;2022-12-29T12:04:00;1.63;;;0.97;;
12267;SDS011;6196;48.398;11.736;2022-12-29T12:06:29;1.40;;;0.90;;
12267;SDS011;6196;48.398;11.736;2022-12-29T12:09:06;2.03;;;0.93;;
12267;SDS011;6196;48.398;11.736;2022-12-29T12:11:42;1.47;;;1.00;;
12267;SDS011;6196;48.398;11.736;2022-12-29T12:16:49;1.80;;;1.03;;
12267;SDS011;6196;48.398;11.736;2022-12-29T12:22:13;1.10;;;1.00;;
12267;SDS011;6196;48.398;11.736;2022-12-29T12:24:49;4.37;;;0.80;;
12267;SDS011;6196;48.398;11.736;2022-12-29T12:30:03;0.80;;;0.70;;
12267;SDS011;6196;48.398;11.736;2022-12-29T12:35:13;1.27;;;0.80;;
12267;SDS011;6196;48.398;11.736;2022-12-29T12:37:52;0.87;;;0.80;;
12267;SDS011;6196;48.398;11.736;2022-12-29T12:44:00;1.30;;;0.90;;
12267;SDS011;6196;48.398;11.736;2022-12-29T13:01:23;2.27;;;0.90;;
12267;SDS011;6196;48.398;11.736;2022-12-29T13:07:50;1.80;;;1.20;;
12267;SDS011;6196;48.398;11.736;2022-12-29T13:10:41;1.77;;;0.90;;
12267;SDS011;6196;48.398;11.736;2022-12-29T13:19:47;3.60;;;1.13;;
12267;SDS011;6196;48.398;11.736;2022-12-29T13:25:19;1.47;;;1.07;;
12267;SDS011;6196;48.398;11.736;2022-12-29T13:27:59;4.07;;;1.07;;
12267;SDS011;6196;48.398;11.736;2022-12-29T13:30:56;2.67;;;1.00;;
12267;SDS011;6196;48.398;11.736;2022-12-29T13:36:39;1.30;;;0.80;;
12267;SDS011;6196;48.398;11.736;2022-12-29T13:39:13;1.07;;;0.90;;
12267;SDS011;6196;48.398;11.736;2022-12-29T13:41:55;2.50;;;0.80;;
12267;SDS011;6196;48.398;11.736;2022-12-29T13:44:27;1.83;;;0.73;;
12267;SDS011;6196;48.398;11.736;2022-12-29T13:47:06;1.70;;;1.10;;
12267;SDS011;6196;48.398;11.736;2022-12-29T13:49:52;2.70;;;1.00;;
12267;SDS011;6196;48.398;11.736;2022-12-29T14:03:47;1.00;;;0.70;;
12267;SDS011;6196;48.398;11.736;2022-12-29T14:06:22;1.43;;;0.80;;
12267;SDS011;6196;48.398;11.736;2022-12-29T14:08:56;1.93;;;1.23;;
12267;SDS011;6196;48.398;11.736;2022-12-29T14:11:36;1.67;;;0.90;;
12267;SDS011;6196;48.398;11.736;2022-12-29T14:16:56;1.70;;;0.97;;
12267;SDS011;6196;48.398;11.736;2022-12-29T14:19:41;2.17;;;1.40;;
12267;SDS011;6196;48.398;11.736;2022-12-29T14:22:10;0.97;;;0.60;;
12267;SDS011;6196;48.398;11.736;2022-12-29T14:24:42;3.80;;;0.87;;
12267;SDS011;6196;48.398;11.736;2022-12-29T14:33:00;2.57;;;1.07;;
12267;SDS011;6196;48.398;11.736;2022-12-29T14:34:55;1.77;;;0.83;;
12267;SDS011;6196;48.398;11.736;2022-12-29T14:42:49;3.67;;;1.20;;
12267;SDS011;6196;48.398;11.736;2022-12-29T14:47:47;1.03;;;0.70;;
12267;SDS011;6196;48.398;11.736;2022-12-29T14:50:17;1.93;;;0.77;;
12267;SDS011;6196;48.398;11.736;2022-12-29T14:52:55;2.17;;;0.90;;
12267;SDS011;6196;48.398;11.736;2022-12-29T14:55:39;2.73;;;1.03;;
12267;SDS011;6196;48.398;11.736;2022-12-29T15:00:49;0.83;;;0.70;;
12267;SDS011;6196;48.398;11.736;2022-12-29T15:03:18;1.23;;;0.80;;
12267;SDS011;6196;48.398;11.736;2022-12-29T15:05:53;2.00;;;0.83;;
12267;SDS011;6196;48.398;11.736;2022-12-29T15:08:39;1.50;;;0.93;;
12267;SDS011;6196;48.398;11.736;2022-12-29T15:11:19;2.63;;;1.17;;
12267;SDS011;6196;48.398;11.736;2022-12-29T15:19:55;2.43;;;1.20;;
12267;SDS011;6196;48.398;11.736;2022-12-29T15:22:23;1.00;;;0.67;;
12267;SDS011;6196;48.398;11.736;2022-12-29T15:24:53;1.23;;;0.90;;
12267;SDS011;6196;48.398;11.736;2022-12-29T15:27:22;1.93;;;1.10;;
12267;SDS011;6196;48.398;11.736;2022-12-29T15:29:55;2.17;;;1.07;;
12267;SDS011;6196;48.398;11.736;2022-12-29T15:32:29;2.17;;;1.00;;
12267;SDS011;6196;48.398;11.736;2022-12-29T15:37:57;1.33;;;0.80;;
12267;SDS011;6196;48.398;11.736;2022-12-29T15:40:26;3.03;;;1.53;;
12267;SDS011;6196;48.398;11.736;2022-12-29T15:46:14;1.47;;;1.07;;
12267;SDS011;6196;48.398;11.736;2022-12-29T15:48:43;1.50;;;1.20;;
12267;SDS011;6196;48.398;11.736;2022-12-29T15:51:24;1.60;;;1.10;;
12267;SDS011;6196;48.398;11.736;2022-12-29T15:53:57;1.83;;;1.20;;
12267;SDS011;6196;48.398;11.736;2022-12-29T15:56:28;1.23;;;1.13;;
12267;SDS011;6196;48.398;11.736;2022-12-29T15:58:56;3.37;;;1.20;;
12267;SDS011;6196;48.398;11.736;2022-12-29T16:04:02;2.63;;;0.83;;
12267;SDS011;6196;48.398;11.736;2022-12-29T16:06:33;1.63;;;1.00;;
12267;SDS011;6196;48.398;11.736;2022-12-29T16:09:15;1.30;;;1.03;;
12267;SDS011;6196;48.398;11.736;2022-12-29T16:11:50;1.27;;;0.90;;
12267;SDS011;6196;48.398;11.736;2022-12-29T16:14:24;3.53;;;1.57;;
12267;SDS011;6196;48.398;11.736;2022-12-29T16:17:20;2.60;;;1.60;;
12267;SDS011;6196;48.398;11.736;2022-12-29T16:20:00;1.63;;;1.20;;
12267;SDS011;6196;48.398;11.736;2022-12-29T16:22:41;2.73;;;1.17;;
12267;SDS011;6196;48.398;11.736;2022-12-29T16:25:23;4.90;;;1.40;;
12267;SDS011;6196;48.398;11.736;2022-12-29T16:27:55;2.13;;;1.10;;
12267;SDS011;6196;48.398;11.736;2022-12-29T16:30:32;2.37;;;1.17;;
12267;SDS011;6196;48.398;11.736;2022-12-29T16:33:01;4.10;;;1.00;;
12267;SDS011;6196;48.398;11.736;2022-12-29T16:38:16;2.93;;;1.50;;
12267;SDS011;6196;48.398;11.736;2022-12-29T16:40:51;1.53;;;1.20;;
12267;SDS011;6196;48.398;11.736;2022-12-29T16:43:30;2.60;;;1.20;;
12267;SDS011;6196;48.398;11.736;2022-12-29T16:48:51;7.10;;;4.67;;
12267;SDS011;6196;48.398;11.736;2022-12-29T16:54:00;14.17;;;8.67;;
12267;SDS011;6196;48.398;11.736;2022-12-29T16:56:29;13.90;;;7.10;;
12267;SDS011;6196;48.398;11.736;2022-12-29T17:01:30;28.83;;;15.87;;
12267;SDS011;6196;48.398;11.736;2022-12-29T17:03:58;16.13;;;8.50;;
12267;SDS011;6196;48.398;11.736;2022-12-29T17:06:37;9.70;;;5.73;;
12267;SDS011;6196;48.398;11.736;2022-12-29T17:09:17;4.20;;;3.10;;
12267;SDS011;6196;48.398;11.736;2022-12-29T17:11:50;3.30;;;2.40;;
12267;SDS011;6196;48.398;11.736;2022-12-29T17:17:33;2.10;;;1.40;;
12267;SDS011;6196;48.398;11.736;2022-12-29T17:20:15;3.40;;;1.33;;
12267;SDS011;6196;48.398;11.736;2022-12-29T17:22:50;3.60;;;1.80;;
12267;SDS011;6196;48.398;11.736;2022-12-29T17:25:20;1.87;;;1.40;;
12267;SDS011;6196;48.398;11.736;2022-12-29T17:27:59;2.03;;;1.50;;
12267;SDS011;6196;48.398;11.736;2022-12-29T17:30:29;2.70;;;1.63;;
12267;SDS011;6196;48.398;11.736;2022-12-29T17:33:00;3.60;;;1.30;;
12267;SDS011;6196;48.398;11.736;2022-12-29T17:35:35;1.40;;;1.30;;
12267;SDS011;6196;48.398;11.736;2022-12-29T17:38:02;3.40;;;1.30;;
12267;SDS011;6196;48.398;11.736;2022-12-29T17:40:37;2.10;;;1.50;;
12267;SDS011;6196;48.398;11.736;2022-12-29T17:43:03;1.60;;;1.20;;
12267;SDS011;6196;48.398;11.736;2022-12-29T17:45:31;1.77;;;1.20;;
12267;SDS011;6196;48.398;11.736;2022-12-29T17:47:58;2.30;;;1.40;;
12267;SDS011;6196;48.398;11.736;2022-12-29T17:50:27;3.57;;;1.37;;
12267;SDS011;6196;48.398;11.736;2022-12-29T17:52:57;1.97;;;0.93;;
12267;SDS011;6196;48.398;11.736;2022-12-29T17:55:28;1.00;;;0.90;;
12267;SDS011;6196;48.398;11.736;2022-12-29T18:00:55;2.00;;;1.20;;
12267;SDS011;6196;48.398;11.736;2022-12-29T18:03:27;1.37;;;1.10;;
12267;SDS011;6196;48.398;11.736;2022-12-29T18:06:06;1.27;;;1.00;;
12267;SDS011;6196;48.398;11.736;2022-12-29T18:08:37;2.13;;;1.30;;
12267;SDS011;6196;48.398;11.736;2022-12-29T18:13:47;2.77;;;1.10;;
12267;SDS011;6196;48.398;11.736;2022-12-29T18:16:14;1.30;;;1.07;;